sensor_id;sensor_type;location;lat;lon;timestamp;P1;durP1;ratioP1;P2;durP2;ratioP2
2396;SDS011;1209;48.410;9.054;2023-11-21T00:00:12;1.80;;;0.90;;
2396;SDS011;1209;48.410;9.054;2023-11-21T00:02:39;2.47;;;1.00;;
2396;SDS011;1209;48.410;9.054;2023-11-21T00:05:09;2.53;;;1.20;;
2396;SDS011;1209;48.410;9.054;2023-11-21T00:07:36;1.57;;;1.00;;
2396;SDS011;1209;48.410;9.054;2023-11-21T00:10:02;1.13;;;0.93;;
2396;SDS011;1209;48.410;9.054;2023-11-21T00:12:31;4.67;;;0.80;;
2396;SDS011;1209;48.410;9.054;2023-11-21T00:14:58;0.80;;;0.80;;
2396;SDS011;1209;48.410;9.054;2023-11-21T00:17:23;6.70;;;1.03;;
2396;SDS011;1209;48.410;9.054;2023-11-21T00:19:49;2.00;;;0.90;;
2396;SDS011;1209;48.410;9.054;2023-11-21T00:22:14;2.10;;;1.03;;
2396;SDS011;1209;48.410;9.054;2023-11-21T00:24:41;2.20;;;0.93;;
2396;SDS011;1209;48.410;9.054;2023-11-21T00:27:06;0.97;;;0.80;;
2396;SDS011;1209;48.410;9.054;2023-11-21T00:29:31;1.50;;;0.80;;
2396;SDS011;1209;48.410;9.054;2023-11-21T00:31:57;4.20;;;0.80;;
2396;SDS011;1209;48.410;9.054;2023-11-21T00:34:23;1.00;;;0.90;;
2396;SDS011;1209;48.410;9.054;2023-11-21T00:36:48;2.30;;;0.80;;
2396;SDS011;1209;48.410;9.054;2023-11-21T00:39:13;1.60;;;0.80;;
2396;SDS011;1209;48.410;9.054;2023-11-21T00:41:39;0.67;;;0.67;;
2396;SDS011;1209;48.410;9.054;2023-11-21T00:44:04;2.30;;;0.97;;
2396;SDS011;1209;48.410;9.054;2023-11-21T00:46:31;0.70;;;0.70;;
2396;SDS011;1209;48.410;9.054;2023-11-21T00:48:57;0.60;;;0.60;;
2396;SDS011;1209;48.410;9.054;2023-11-21T00:51:22;1.23;;;1.00;;
2396;SDS011;1209;48.410;9.054;2023-11-21T00:53:48;3.13;;;0.90;;
2396;SDS011;1209;48.410;9.054;2023-11-21T00:56:13;0.87;;;0.87;;
2396;SDS011;1209;48.410;9.054;2023-11-21T00:58:39;0.70;;;0.70;;
2396;SDS011;1209;48.410;9.054;2023-11-21T01:01:11;0.57;;;0.57;;
2396;SDS011;1209;48.410;9.054;2023-11-21T01:03:36;3.60;;;1.10;;
2396;SDS011;1209;48.410;9.054;2023-11-21T01:06:02;0.87;;;0.60;;
2396;SDS011;1209;48.410;9.054;2023-11-21T01:08:27;0.63;;;0.63;;
2396;SDS011;1209;48.410;9.054;2023-11-21T01:10:53;0.97;;;0.97;;
2396;SDS011;1209;48.410;9.054;2023-11-21T01:13:19;1.47;;;1.47;;
2396;SDS011;1209;48.410;9.054;2023-11-21T01:15:45;5.83;;;1.10;;
2396;SDS011;1209;48.410;9.054;2023-11-21T01:18:10;0.60;;;0.60;;
2396;SDS011;1209;48.410;9.054;2023-11-21T01:20:35;1.37;;;0.70;;
2396;SDS011;1209;48.410;9.054;2023-11-21T01:23:00;1.03;;;0.73;;
2396;SDS011;1209;48.410;9.054;2023-11-21T01:25:26;0.60;;;0.60;;
2396;SDS011;1209;48.410;9.054;2023-11-21T01:27:51;0.80;;;0.80;;
2396;SDS011;1209;48.410;9.054;2023-11-21T01:30:17;0.50;;;0.50;;
2396;SDS011;1209;48.410;9.054;2023-11-21T01:32:44;1.87;;;1.00;;
2396;SDS011;1209;48.410;9.054;2023-11-21T01:35:09;0.60;;;0.60;;
2396;SDS011;1209;48.410;9.054;2023-11-21T01:37:35;0.70;;;0.70;;
2396;SDS011;1209;48.410;9.054;2023-11-21T01:40:01;1.43;;;0.70;;
2396;SDS011;1209;48.410;9.054;2023-11-21T01:42:27;0.57;;;0.57;;
2396;SDS011;1209;48.410;9.054;2023-11-21T01:44:54;0.60;;;0.60;;
2396;SDS011;1209;48.410;9.054;2023-11-21T01:47:19;0.70;;;0.70;;
2396;SDS011;1209;48.410;9.054;2023-11-21T01:49:46;0.80;;;0.70;;
2396;SDS011;1209;48.410;9.054;2023-11-21T01:52:12;0.67;;;0.67;;
2396;SDS011;1209;48.410;9.054;2023-11-21T01:54:38;0.60;;;0.60;;
2396;SDS011;1209;48.410;9.054;2023-11-21T01:57:04;0.70;;;0.70;;
2396;SDS011;1209;48.410;9.054;2023-11-21T01:59:34;0.50;;;0.50;;
2396;SDS011;1209;48.410;9.054;2023-11-21T02:02:02;0.60;;;0.60;;
2396;SDS011;1209;48.410;9.054;2023-11-21T02:04:29;0.63;;;0.50;;
2396;SDS011;1209;48.410;9.054;2023-11-21T02:06:56;1.23;;;0.70;;
2396;SDS011;1209;48.410;9.054;2023-11-21T02:09:28;0.60;;;0.57;;
2396;SDS011;1209;48.410;9.054;2023-11-21T02:11:58;0.50;;;0.50;;
2396;SDS011;1209;48.410;9.054;2023-11-21T02:14:26;0.53;;;0.53;;
2396;SDS011;1209;48.410;9.054;2023-11-21T02:16:53;0.50;;;0.50;;
2396;SDS011;1209;48.410;9.054;2023-11-21T02:19:19;0.47;;;0.47;;
2396;SDS011;1209;48.410;9.054;2023-11-21T02:21:48;0.80;;;0.70;;
2396;SDS011;1209;48.410;9.054;2023-11-21T02:24:14;0.80;;;0.80;;
2396;SDS011;1209;48.410;9.054;2023-11-21T02:26:40;0.50;;;0.50;;
2396;SDS011;1209;48.410;9.054;2023-11-21T02:29:06;0.80;;;0.60;;
2396;SDS011;1209;48.410;9.054;2023-11-21T02:31:35;0.40;;;0.40;;
2396;SDS011;1209;48.410;9.054;2023-11-21T02:34:02;0.93;;;0.60;;
2396;SDS011;1209;48.410;9.054;2023-11-21T02:36:28;0.60;;;0.60;;
2396;SDS011;1209;48.410;9.054;2023-11-21T02:38:53;0.50;;;0.50;;
2396;SDS011;1209;48.410;9.054;2023-11-21T02:41:18;0.60;;;0.60;;
2396;SDS011;1209;48.410;9.054;2023-11-21T02:43:44;2.00;;;0.50;;
2396;SDS011;1209;48.410;9.054;2023-11-21T02:46:09;2.93;;;0.60;;
2396;SDS011;1209;48.410;9.054;2023-11-21T02:48:34;0.50;;;0.50;;
2396;SDS011;1209;48.410;9.054;2023-11-21T02:51:01;0.50;;;0.50;;
2396;SDS011;1209;48.410;9.054;2023-11-21T02:53:26;0.40;;;0.40;;
2396;SDS011;1209;48.410;9.054;2023-11-21T02:55:51;0.43;;;0.43;;
2396;SDS011;1209;48.410;9.054;2023-11-21T02:58:17;2.10;;;0.63;;
2396;SDS011;1209;48.410;9.054;2023-11-21T03:00:42;0.40;;;0.40;;
2396;SDS011;1209;48.410;9.054;2023-11-21T03:03:07;0.50;;;0.50;;
2396;SDS011;1209;48.410;9.054;2023-11-21T03:05:33;0.60;;;0.60;;
2396;SDS011;1209;48.410;9.054;2023-11-21T03:08:00;3.70;;;0.60;;
2396;SDS011;1209;48.410;9.054;2023-11-21T03:10:26;1.60;;;0.80;;
2396;SDS011;1209;48.410;9.054;2023-11-21T03:12:52;0.50;;;0.50;;
2396;SDS011;1209;48.410;9.054;2023-11-21T03:15:17;0.50;;;0.50;;
2396;SDS011;1209;48.410;9.054;2023-11-21T03:17:42;0.53;;;0.53;;
2396;SDS011;1209;48.410;9.054;2023-11-21T03:20:08;0.57;;;0.57;;
2396;SDS011;1209;48.410;9.054;2023-11-21T03:22:35;0.60;;;0.50;;
2396;SDS011;1209;48.410;9.054;2023-11-21T03:25:01;0.60;;;0.60;;
2396;SDS011;1209;48.410;9.054;2023-11-21T03:27:26;0.60;;;0.60;;
2396;SDS011;1209;48.410;9.054;2023-11-21T03:29:52;0.50;;;0.50;;
2396;SDS011;1209;48.410;9.054;2023-11-21T03:32:17;0.50;;;0.50;;
2396;SDS011;1209;48.410;9.054;2023-11-21T03:34:53;0.50;;;0.50;;
2396;SDS011;1209;48.410;9.054;2023-11-21T03:37:21;0.50;;;0.50;;
2396;SDS011;1209;48.410;9.054;2023-11-21T03:39:46;0.53;;;0.53;;
2396;SDS011;1209;48.410;9.054;2023-11-21T03:42:12;0.50;;;0.50;;
2396;SDS011;1209;48.410;9.054;2023-11-21T03:44:37;0.60;;;0.60;;
2396;SDS011;1209;48.410;9.054;2023-11-21T03:47:02;0.70;;;0.70;;
2396;SDS011;1209;48.410;9.054;2023-11-21T03:49:28;0.50;;;0.50;;
2396;SDS011;1209;48.410;9.054;2023-11-21T03:51:54;0.73;;;0.50;;
2396;SDS011;1209;48.410;9.054;2023-11-21T03:54:19;0.60;;;0.60;;
2396;SDS011;1209;48.410;9.054;2023-11-21T03:56:45;0.50;;;0.50;;
2396;SDS011;1209;48.410;9.054;2023-11-21T03:59:10;0.50;;;0.50;;
2396;SDS011;1209;48.410;9.054;2023-11-21T04:01:36;0.50;;;0.50;;
2396;SDS011;1209;48.410;9.054;2023-11-21T04:04:01;0.50;;;0.50;;
2396;SDS011;1209;48.410;9.054;2023-11-21T04:06:27;0.60;;;0.60;;
2396;SDS011;1209;48.410;9.054;2023-11-21T04:08:52;1.23;;;0.80;;
2396;SDS011;1209;48.410;9.054;2023-11-21T04:11:18;0.50;;;0.50;;
2396;SDS011;1209;48.410;9.054;2023-11-21T04:13:43;0.50;;;0.50;;
2396;SDS011;1209;48.410;9.054;2023-11-21T04:16:09;1.70;;;0.53;;
2396;SDS011;1209;48.410;9.054;2023-11-21T04:18:37;1.57;;;0.70;;
2396;SDS011;1209;48.410;9.054;2023-11-21T04:21:06;0.40;;;0.40;;
2396;SDS011;1209;48.410;9.054;2023-11-21T04:23:32;0.93;;;0.80;;
2396;SDS011;1209;48.410;9.054;2023-11-21T04:25:58;1.23;;;0.50;;
2396;SDS011;1209;48.410;9.054;2023-11-21T04:28:23;0.50;;;0.50;;
2396;SDS011;1209;48.410;9.054;2023-11-21T04:30:49;0.50;;;0.50;;
2396;SDS011;1209;48.410;9.054;2023-11-21T04:33:15;0.50;;;0.50;;
2396;SDS011;1209;48.410;9.054;2023-11-21T04:35:41;0.50;;;0.50;;
2396;SDS011;1209;48.410;9.054;2023-11-21T04:38:06;0.60;;;0.60;;
2396;SDS011;1209;48.410;9.054;2023-11-21T04:40:31;0.60;;;0.60;;
2396;SDS011;1209;48.410;9.054;2023-11-21T04:42:57;2.37;;;2.17;;
2396;SDS011;1209;48.410;9.054;2023-11-21T04:45:22;0.80;;;0.80;;
2396;SDS011;1209;48.410;9.054;2023-11-21T04:47:48;0.80;;;0.80;;
2396;SDS011;1209;48.410;9.054;2023-11-21T04:50:13;0.57;;;0.50;;
2396;SDS011;1209;48.410;9.054;2023-11-21T04:52:38;0.70;;;0.70;;
2396;SDS011;1209;48.410;9.054;2023-11-21T04:55:04;0.40;;;0.40;;
2396;SDS011;1209;48.410;9.054;2023-11-21T04:57:31;0.60;;;0.60;;
2396;SDS011;1209;48.410;9.054;2023-11-21T04:59:57;0.60;;;0.60;;
2396;SDS011;1209;48.410;9.054;2023-11-21T05:02:22;0.60;;;0.60;;
2396;SDS011;1209;48.410;9.054;2023-11-21T05:04:48;4.83;;;0.77;;
2396;SDS011;1209;48.410;9.054;2023-11-21T05:07:13;0.50;;;0.50;;
2396;SDS011;1209;48.410;9.054;2023-11-21T05:09:42;0.60;;;0.60;;
2396;SDS011;1209;48.410;9.054;2023-11-21T05:12:11;0.70;;;0.70;;
2396;SDS011;1209;48.410;9.054;2023-11-21T05:14:37;0.77;;;0.77;;
2396;SDS011;1209;48.410;9.054;2023-11-21T05:17:02;2.03;;;1.93;;
2396;SDS011;1209;48.410;9.054;2023-11-21T05:19:29;5.80;;;5.07;;
2396;SDS011;1209;48.410;9.054;2023-11-21T05:21:54;4.07;;;3.67;;
2396;SDS011;1209;48.410;9.054;2023-11-21T05:24:20;3.10;;;2.30;;
2396;SDS011;1209;48.410;9.054;2023-11-21T05:26:45;1.47;;;1.47;;
2396;SDS011;1209;48.410;9.054;2023-11-21T05:29:10;0.90;;;0.90;;
2396;SDS011;1209;48.410;9.054;2023-11-21T05:31:36;0.80;;;0.80;;
2396;SDS011;1209;48.410;9.054;2023-11-21T05:34:01;3.50;;;1.67;;
2396;SDS011;1209;48.410;9.054;2023-11-21T05:36:28;1.07;;;1.07;;
2396;SDS011;1209;48.410;9.054;2023-11-21T05:38:53;1.00;;;1.00;;
2396;SDS011;1209;48.410;9.054;2023-11-21T05:41:18;0.87;;;0.67;;
2396;SDS011;1209;48.410;9.054;2023-11-21T05:43:43;2.23;;;0.70;;
2396;SDS011;1209;48.410;9.054;2023-11-21T05:46:09;0.73;;;0.70;;
2396;SDS011;1209;48.410;9.054;2023-11-21T05:48:34;0.80;;;0.80;;
2396;SDS011;1209;48.410;9.054;2023-11-21T05:51:02;0.70;;;0.70;;
2396;SDS011;1209;48.410;9.054;2023-11-21T05:53:29;0.60;;;0.60;;
2396;SDS011;1209;48.410;9.054;2023-11-21T05:55:55;0.60;;;0.60;;
2396;SDS011;1209;48.410;9.054;2023-11-21T05:58:20;0.57;;;0.57;;
2396;SDS011;1209;48.410;9.054;2023-11-21T06:00:46;0.70;;;0.70;;
2396;SDS011;1209;48.410;9.054;2023-11-21T06:03:11;0.70;;;0.70;;
2396;SDS011;1209;48.410;9.054;2023-11-21T06:05:37;0.70;;;0.70;;
2396;SDS011;1209;48.410;9.054;2023-11-21T06:08:02;1.17;;;0.97;;
2396;SDS011;1209;48.410;9.054;2023-11-21T06:10:28;0.50;;;0.50;;
2396;SDS011;1209;48.410;9.054;2023-11-21T06:12:53;0.90;;;0.87;;
2396;SDS011;1209;48.410;9.054;2023-11-21T06:15:18;0.87;;;0.87;;
2396;SDS011;1209;48.410;9.054;2023-11-21T06:17:45;0.80;;;0.80;;
2396;SDS011;1209;48.410;9.054;2023-11-21T06:20:14;2.03;;;0.70;;
2396;SDS011;1209;48.410;9.054;2023-11-21T06:22:41;5.50;;;1.00;;
2396;SDS011;1209;48.410;9.054;2023-11-21T06:25:07;1.50;;;0.80;;
2396;SDS011;1209;48.410;9.054;2023-11-21T06:27:34;0.80;;;0.80;;
2396;SDS011;1209;48.410;9.054;2023-11-21T06:30:02;6.80;;;1.00;;
2396;SDS011;1209;48.410;9.054;2023-11-21T06:32:28;1.17;;;0.97;;
2396;SDS011;1209;48.410;9.054;2023-11-21T06:34:55;1.37;;;0.97;;
2396;SDS011;1209;48.410;9.054;2023-11-21T06:37:20;0.80;;;0.80;;
2396;SDS011;1209;48.410;9.054;2023-11-21T06:39:49;3.23;;;1.07;;
2396;SDS011;1209;48.410;9.054;2023-11-21T06:42:17;0.70;;;0.70;;
2396;SDS011;1209;48.410;9.054;2023-11-21T06:44:42;1.20;;;0.77;;
2396;SDS011;1209;48.410;9.054;2023-11-21T06:47:08;0.80;;;0.80;;
2396;SDS011;1209;48.410;9.054;2023-11-21T06:49:33;0.90;;;0.90;;
2396;SDS011;1209;48.410;9.054;2023-11-21T06:51:59;1.13;;;1.03;;
2396;SDS011;1209;48.410;9.054;2023-11-21T06:54:24;0.80;;;0.80;;
2396;SDS011;1209;48.410;9.054;2023-11-21T06:56:50;2.97;;;1.10;;
2396;SDS011;1209;48.410;9.054;2023-11-21T06:59:15;2.10;;;1.20;;
2396;SDS011;1209;48.410;9.054;2023-11-21T07:01:40;2.87;;;1.07;;
2396;SDS011;1209;48.410;9.054;2023-11-21T07:04:06;5.50;;;1.20;;
2396;SDS011;1209;48.410;9.054;2023-11-21T07:06:32;1.60;;;1.20;;
2396;SDS011;1209;48.410;9.054;2023-11-21T07:08:58;1.37;;;1.30;;
2396;SDS011;1209;48.410;9.054;2023-11-21T07:11:23;1.43;;;1.23;;
2396;SDS011;1209;48.410;9.054;2023-11-21T07:13:50;0.90;;;0.90;;
2396;SDS011;1209;48.410;9.054;2023-11-21T07:16:15;4.50;;;3.50;;
2396;SDS011;1209;48.410;9.054;2023-11-21T07:18:41;8.03;;;2.57;;
2396;SDS011;1209;48.410;9.054;2023-11-21T07:21:06;1.60;;;1.50;;
2396;SDS011;1209;48.410;9.054;2023-11-21T07:23:33;1.60;;;1.50;;
2396;SDS011;1209;48.410;9.054;2023-11-21T07:25:58;3.30;;;1.60;;
2396;SDS011;1209;48.410;9.054;2023-11-21T07:28:24;1.50;;;1.40;;
2396;SDS011;1209;48.410;9.054;2023-11-21T07:30:50;3.50;;;1.87;;
2396;SDS011;1209;48.410;9.054;2023-11-21T07:33:16;1.20;;;1.20;;
2396;SDS011;1209;48.410;9.054;2023-11-21T07:35:42;1.10;;;1.10;;
2396;SDS011;1209;48.410;9.054;2023-11-21T07:38:07;1.60;;;1.40;;
2396;SDS011;1209;48.410;9.054;2023-11-21T07:40:33;1.40;;;1.30;;
2396;SDS011;1209;48.410;9.054;2023-11-21T07:42:58;1.30;;;1.20;;
2396;SDS011;1209;48.410;9.054;2023-11-21T07:45:24;0.80;;;0.80;;
2396;SDS011;1209;48.410;9.054;2023-11-21T07:47:52;3.30;;;1.13;;
2396;SDS011;1209;48.410;9.054;2023-11-21T07:50:18;1.20;;;1.10;;
2396;SDS011;1209;48.410;9.054;2023-11-21T07:52:45;1.03;;;1.03;;
2396;SDS011;1209;48.410;9.054;2023-11-21T07:55:10;1.43;;;1.07;;
2396;SDS011;1209;48.410;9.054;2023-11-21T07:57:36;0.80;;;0.80;;
2396;SDS011;1209;48.410;9.054;2023-11-21T08:00:01;1.20;;;1.10;;
2396;SDS011;1209;48.410;9.054;2023-11-21T08:02:28;2.53;;;1.97;;
2396;SDS011;1209;48.410;9.054;2023-11-21T08:04:53;1.53;;;1.13;;
2396;SDS011;1209;48.410;9.054;2023-11-21T08:07:21;0.80;;;0.80;;
2396;SDS011;1209;48.410;9.054;2023-11-21T08:09:47;1.20;;;1.00;;
2396;SDS011;1209;48.410;9.054;2023-11-21T08:12:14;0.70;;;0.70;;
2396;SDS011;1209;48.410;9.054;2023-11-21T08:14:40;1.70;;;1.20;;
2396;SDS011;1209;48.410;9.054;2023-11-21T08:17:05;1.57;;;1.23;;
2396;SDS011;1209;48.410;9.054;2023-11-21T08:19:31;0.70;;;0.70;;
2396;SDS011;1209;48.410;9.054;2023-11-21T08:21:57;3.27;;;1.80;;
2396;SDS011;1209;48.410;9.054;2023-11-21T08:24:24;0.73;;;0.70;;
2396;SDS011;1209;48.410;9.054;2023-11-21T08:26:49;1.00;;;1.00;;
2396;SDS011;1209;48.410;9.054;2023-11-21T08:29:15;1.10;;;1.10;;
2396;SDS011;1209;48.410;9.054;2023-11-21T08:31:41;1.10;;;1.10;;
2396;SDS011;1209;48.410;9.054;2023-11-21T08:34:07;0.83;;;0.83;;
2396;SDS011;1209;48.410;9.054;2023-11-21T08:36:33;1.13;;;1.03;;
2396;SDS011;1209;48.410;9.054;2023-11-21T08:38:58;1.50;;;1.20;;
2396;SDS011;1209;48.410;9.054;2023-11-21T08:41:24;1.70;;;1.50;;
2396;SDS011;1209;48.410;9.054;2023-11-21T08:43:50;1.13;;;1.13;;
2396;SDS011;1209;48.410;9.054;2023-11-21T08:46:15;1.17;;;1.07;;
2396;SDS011;1209;48.410;9.054;2023-11-21T08:48:43;1.10;;;1.10;;
2396;SDS011;1209;48.410;9.054;2023-11-21T08:51:09;0.97;;;0.97;;
2396;SDS011;1209;48.410;9.054;2023-11-21T08:53:36;1.83;;;1.73;;
2396;SDS011;1209;48.410;9.054;2023-11-21T08:56:02;5.03;;;3.37;;
2396;SDS011;1209;48.410;9.054;2023-11-21T08:58:29;2.50;;;2.23;;
2396;SDS011;1209;48.410;9.054;2023-11-21T09:00:55;1.10;;;1.10;;
2396;SDS011;1209;48.410;9.054;2023-11-21T09:03:21;2.40;;;1.37;;
2396;SDS011;1209;48.410;9.054;2023-11-21T09:05:46;1.60;;;1.03;;
2396;SDS011;1209;48.410;9.054;2023-11-21T09:08:11;1.10;;;1.10;;
2396;SDS011;1209;48.410;9.054;2023-11-21T09:10:37;1.30;;;1.20;;
2396;SDS011;1209;48.410;9.054;2023-11-21T09:13:02;1.00;;;1.00;;
2396;SDS011;1209;48.410;9.054;2023-11-21T09:15:28;1.17;;;1.17;;
2396;SDS011;1209;48.410;9.054;2023-11-21T09:17:53;1.70;;;1.60;;
2396;SDS011;1209;48.410;9.054;2023-11-21T09:20:18;1.17;;;1.17;;
2396;SDS011;1209;48.410;9.054;2023-11-21T09:22:47;4.00;;;1.30;;
2396;SDS011;1209;48.410;9.054;2023-11-21T09:25:13;1.50;;;1.40;;
2396;SDS011;1209;48.410;9.054;2023-11-21T09:27:39;2.77;;;1.20;;
2396;SDS011;1209;48.410;9.054;2023-11-21T09:30:04;1.10;;;1.10;;
2396;SDS011;1209;48.410;9.054;2023-11-21T09:32:33;1.40;;;0.97;;
2396;SDS011;1209;48.410;9.054;2023-11-21T09:35:00;1.17;;;1.13;;
2396;SDS011;1209;48.410;9.054;2023-11-21T09:37:27;1.33;;;1.33;;
2396;SDS011;1209;48.410;9.054;2023-11-21T09:39:52;1.03;;;1.03;;
2396;SDS011;1209;48.410;9.054;2023-11-21T09:42:20;2.63;;;1.30;;
2396;SDS011;1209;48.410;9.054;2023-11-21T09:47:35;1.40;;;1.30;;
2396;SDS011;1209;48.410;9.054;2023-11-21T09:50:03;1.17;;;1.17;;
2396;SDS011;1209;48.410;9.054;2023-11-21T09:52:32;1.50;;;1.40;;
2396;SDS011;1209;48.410;9.054;2023-11-21T09:55:08;16.00;;;9.73;;
2396;SDS011;1209;48.410;9.054;2023-11-21T09:57:38;3.70;;;1.67;;
2396;SDS011;1209;48.410;9.054;2023-11-21T10:00:03;1.00;;;1.00;;
2396;SDS011;1209;48.410;9.054;2023-11-21T10:02:31;1.27;;;1.20;;
2396;SDS011;1209;48.410;9.054;2023-11-21T10:05:01;1.47;;;1.40;;
2396;SDS011;1209;48.410;9.054;2023-11-21T10:07:27;3.13;;;1.00;;
2396;SDS011;1209;48.410;9.054;2023-11-21T10:09:53;0.83;;;0.83;;
2396;SDS011;1209;48.410;9.054;2023-11-21T10:12:20;1.00;;;1.00;;
2396;SDS011;1209;48.410;9.054;2023-11-21T10:14:48;1.30;;;0.90;;
2396;SDS011;1209;48.410;9.054;2023-11-21T10:17:14;1.77;;;1.30;;
2396;SDS011;1209;48.410;9.054;2023-11-21T10:19:46;1.23;;;1.13;;
2396;SDS011;1209;48.410;9.054;2023-11-21T10:22:13;2.10;;;0.90;;
2396;SDS011;1209;48.410;9.054;2023-11-21T10:24:40;1.00;;;1.00;;
2396;SDS011;1209;48.410;9.054;2023-11-21T10:27:05;1.13;;;1.03;;
2396;SDS011;1209;48.410;9.054;2023-11-21T10:29:30;0.90;;;0.90;;
2396;SDS011;1209;48.410;9.054;2023-11-21T10:32:00;1.03;;;1.03;;
2396;SDS011;1209;48.410;9.054;2023-11-21T10:34:27;0.93;;;0.93;;
2396;SDS011;1209;48.410;9.054;2023-11-21T10:36:52;0.90;;;0.90;;
2396;SDS011;1209;48.410;9.054;2023-11-21T10:39:18;1.40;;;1.30;;
2396;SDS011;1209;48.410;9.054;2023-11-21T10:41:46;0.97;;;0.97;;
2396;SDS011;1209;48.410;9.054;2023-11-21T10:44:15;0.90;;;0.90;;
2396;SDS011;1209;48.410;9.054;2023-11-21T10:46:52;1.00;;;1.00;;
2396;SDS011;1209;48.410;9.054;2023-11-21T10:49:25;1.40;;;1.40;;
2396;SDS011;1209;48.410;9.054;2023-11-21T10:51:52;1.63;;;1.10;;
2396;SDS011;1209;48.410;9.054;2023-11-21T10:54:19;1.80;;;1.20;;
2396;SDS011;1209;48.410;9.054;2023-11-21T10:56:45;1.20;;;1.20;;
2396;SDS011;1209;48.410;9.054;2023-11-21T10:59:13;1.03;;;1.03;;
2396;SDS011;1209;48.410;9.054;2023-11-21T11:01:41;1.63;;;1.23;;
2396;SDS011;1209;48.410;9.054;2023-11-21T11:04:09;1.13;;;1.10;;
2396;SDS011;1209;48.410;9.054;2023-11-21T11:06:45;1.17;;;1.17;;
2396;SDS011;1209;48.410;9.054;2023-11-21T11:09:16;4.17;;;3.27;;
2396;SDS011;1209;48.410;9.054;2023-11-21T11:11:42;1.60;;;1.50;;
2396;SDS011;1209;48.410;9.054;2023-11-21T11:14:12;1.50;;;1.40;;
2396;SDS011;1209;48.410;9.054;2023-11-21T11:16:40;1.07;;;1.07;;
2396;SDS011;1209;48.410;9.054;2023-11-21T11:19:06;1.10;;;1.10;;
2396;SDS011;1209;48.410;9.054;2023-11-21T11:30:03;13.43;;;1.33;;
2396;SDS011;1209;48.410;9.054;2023-11-21T11:36:02;1.10;;;1.10;;
2396;SDS011;1209;48.410;9.054;2023-11-21T11:38:33;1.30;;;1.20;;
2396;SDS011;1209;48.410;9.054;2023-11-21T11:41:01;1.73;;;1.63;;
2396;SDS011;1209;48.410;9.054;2023-11-21T11:43:29;1.80;;;1.70;;
2396;SDS011;1209;48.410;9.054;2023-11-21T11:45:57;2.57;;;1.70;;
2396;SDS011;1209;48.410;9.054;2023-11-21T11:48:28;1.57;;;1.47;;
2396;SDS011;1209;48.410;9.054;2023-11-21T11:53:33;2.00;;;1.80;;
2396;SDS011;1209;48.410;9.054;2023-11-21T11:56:18;2.23;;;2.03;;
2396;SDS011;1209;48.410;9.054;2023-11-21T11:58:44;2.73;;;2.30;;
2396;SDS011;1209;48.410;9.054;2023-11-21T12:01:11;1.80;;;1.70;;
2396;SDS011;1209;48.410;9.054;2023-11-21T12:03:36;3.53;;;1.30;;
2396;SDS011;1209;48.410;9.054;2023-11-21T12:06:02;2.00;;;1.80;;
2396;SDS011;1209;48.410;9.054;2023-11-21T12:08:28;1.60;;;1.50;;
2396;SDS011;1209;48.410;9.054;2023-11-21T12:10:56;1.63;;;1.53;;
2396;SDS011;1209;48.410;9.054;2023-11-21T12:13:22;2.03;;;1.90;;
2396;SDS011;1209;48.410;9.054;2023-11-21T12:15:48;2.53;;;2.30;;
2396;SDS011;1209;48.410;9.054;2023-11-21T12:18:13;2.00;;;1.53;;
2396;SDS011;1209;48.410;9.054;2023-11-21T12:20:39;1.60;;;1.50;;
2396;SDS011;1209;48.410;9.054;2023-11-21T12:23:06;2.33;;;2.13;;
2396;SDS011;1209;48.410;9.054;2023-11-21T12:25:33;2.00;;;1.90;;
2396;SDS011;1209;48.410;9.054;2023-11-21T12:28:00;1.83;;;1.73;;
2396;SDS011;1209;48.410;9.054;2023-11-21T12:30:28;1.47;;;1.30;;
2396;SDS011;1209;48.410;9.054;2023-11-21T12:32:56;5.13;;;3.53;;
2396;SDS011;1209;48.410;9.054;2023-11-21T12:35:26;1.93;;;1.83;;
2396;SDS011;1209;48.410;9.054;2023-11-21T12:37:53;2.63;;;1.60;;
2396;SDS011;1209;48.410;9.054;2023-11-21T12:40:20;1.70;;;1.60;;
2396;SDS011;1209;48.410;9.054;2023-11-21T12:42:48;1.60;;;1.50;;
2396;SDS011;1209;48.410;9.054;2023-11-21T12:47:48;4.40;;;2.80;;
2396;SDS011;1209;48.410;9.054;2023-11-21T12:50:23;3.20;;;2.83;;
2396;SDS011;1209;48.410;9.054;2023-11-21T12:52:53;2.83;;;2.57;;
2396;SDS011;1209;48.410;9.054;2023-11-21T12:55:23;2.53;;;2.33;;
2396;SDS011;1209;48.410;9.054;2023-11-21T12:57:52;3.77;;;3.43;;
2396;SDS011;1209;48.410;9.054;2023-11-21T13:00:29;2.83;;;2.50;;
2396;SDS011;1209;48.410;9.054;2023-11-21T13:02:58;2.33;;;2.13;;
2396;SDS011;1209;48.410;9.054;2023-11-21T13:05:27;2.17;;;2.07;;
2396;SDS011;1209;48.410;9.054;2023-11-21T13:07:54;2.30;;;2.13;;
2396;SDS011;1209;48.410;9.054;2023-11-21T13:10:25;2.63;;;2.40;;
2396;SDS011;1209;48.410;9.054;2023-11-21T13:12:54;5.27;;;3.33;;
2396;SDS011;1209;48.410;9.054;2023-11-21T13:15:23;3.87;;;3.50;;
2396;SDS011;1209;48.410;9.054;2023-11-21T13:17:49;2.80;;;2.60;;
2396;SDS011;1209;48.410;9.054;2023-11-21T13:20:16;3.87;;;2.10;;
2396;SDS011;1209;48.410;9.054;2023-11-21T13:22:54;2.97;;;2.40;;
2396;SDS011;1209;48.410;9.054;2023-11-21T13:25:24;4.23;;;2.10;;
2396;SDS011;1209;48.410;9.054;2023-11-21T13:27:56;1.07;;;1.07;;
2396;SDS011;1209;48.410;9.054;2023-11-21T13:30:23;2.43;;;1.47;;
2396;SDS011;1209;48.410;9.054;2023-11-21T13:32:58;3.03;;;2.13;;
2396;SDS011;1209;48.410;9.054;2023-11-21T13:35:26;3.33;;;1.33;;
2396;SDS011;1209;48.410;9.054;2023-11-21T13:38:03;3.87;;;1.60;;
2396;SDS011;1209;48.410;9.054;2023-11-21T13:40:31;1.70;;;1.60;;
2396;SDS011;1209;48.410;9.054;2023-11-21T13:42:59;1.90;;;1.80;;
2396;SDS011;1209;48.410;9.054;2023-11-21T13:45:25;2.97;;;2.13;;
2396;SDS011;1209;48.410;9.054;2023-11-21T13:47:52;2.50;;;2.20;;
2396;SDS011;1209;48.410;9.054;2023-11-21T13:50:23;2.03;;;1.93;;
2396;SDS011;1209;48.410;9.054;2023-11-21T13:52:54;2.20;;;2.00;;
2396;SDS011;1209;48.410;9.054;2023-11-21T13:55:20;5.27;;;3.10;;
2396;SDS011;1209;48.410;9.054;2023-11-21T13:57:49;4.93;;;2.63;;
2396;SDS011;1209;48.410;9.054;2023-11-21T14:00:17;2.30;;;2.10;;
2396;SDS011;1209;48.410;9.054;2023-11-21T14:03:01;5.10;;;3.63;;
2396;SDS011;1209;48.410;9.054;2023-11-21T14:05:30;2.63;;;2.33;;
2396;SDS011;1209;48.410;9.054;2023-11-21T14:07:56;5.17;;;2.87;;
2396;SDS011;1209;48.410;9.054;2023-11-21T14:10:28;4.93;;;3.50;;
2396;SDS011;1209;48.410;9.054;2023-11-21T14:13:02;5.27;;;3.63;;
2396;SDS011;1209;48.410;9.054;2023-11-21T14:15:28;3.10;;;2.63;;
2396;SDS011;1209;48.410;9.054;2023-11-21T14:17:54;2.80;;;2.53;;
2396;SDS011;1209;48.410;9.054;2023-11-21T14:20:19;2.90;;;2.70;;
2396;SDS011;1209;48.410;9.054;2023-11-21T14:22:46;3.17;;;2.90;;
2396;SDS011;1209;48.410;9.054;2023-11-21T14:25:11;1.73;;;1.63;;
2396;SDS011;1209;48.410;9.054;2023-11-21T14:27:37;1.80;;;1.70;;
2396;SDS011;1209;48.410;9.054;2023-11-21T14:30:02;1.70;;;1.60;;
2396;SDS011;1209;48.410;9.054;2023-11-21T14:32:30;3.50;;;2.00;;
2396;SDS011;1209;48.410;9.054;2023-11-21T14:34:56;3.37;;;2.70;;
2396;SDS011;1209;48.410;9.054;2023-11-21T14:37:21;5.97;;;4.10;;
2396;SDS011;1209;48.410;9.054;2023-11-21T14:39:46;4.63;;;3.67;;
2396;SDS011;1209;48.410;9.054;2023-11-21T14:42:14;15.47;;;8.30;;
2396;SDS011;1209;48.410;9.054;2023-11-21T14:44:40;15.57;;;8.30;;
2396;SDS011;1209;48.410;9.054;2023-11-21T14:47:07;82.23;;;36.67;;
2396;SDS011;1209;48.410;9.054;2023-11-21T14:49:43;80.50;;;38.37;;
2396;SDS011;1209;48.410;9.054;2023-11-21T14:52:21;7.50;;;5.30;;
2396;SDS011;1209;48.410;9.054;2023-11-21T14:55:07;1.90;;;1.80;;
2396;SDS011;1209;48.410;9.054;2023-11-21T14:57:51;4.30;;;3.67;;
2396;SDS011;1209;48.410;9.054;2023-11-21T15:00:17;5.77;;;5.27;;
2396;SDS011;1209;48.410;9.054;2023-11-21T15:03:04;2.23;;;2.13;;
2396;SDS011;1209;48.410;9.054;2023-11-21T15:05:30;2.20;;;2.00;;
2396;SDS011;1209;48.410;9.054;2023-11-21T15:07:56;1.93;;;1.83;;
2396;SDS011;1209;48.410;9.054;2023-11-21T15:10:33;2.27;;;2.07;;
2396;SDS011;1209;48.410;9.054;2023-11-21T15:13:10;2.97;;;2.70;;
2396;SDS011;1209;48.410;9.054;2023-11-21T15:15:36;3.87;;;2.80;;
2396;SDS011;1209;48.410;9.054;2023-11-21T15:18:02;7.60;;;5.03;;
2396;SDS011;1209;48.410;9.054;2023-11-21T15:20:28;4.80;;;4.30;;
2396;SDS011;1209;48.410;9.054;2023-11-21T15:22:53;4.13;;;3.47;;
2396;SDS011;1209;48.410;9.054;2023-11-21T15:25:19;3.83;;;3.43;;
2396;SDS011;1209;48.410;9.054;2023-11-21T15:27:44;3.93;;;3.17;;
2396;SDS011;1209;48.410;9.054;2023-11-21T15:30:12;5.30;;;3.40;;
2396;SDS011;1209;48.410;9.054;2023-11-21T15:32:37;4.57;;;3.10;;